createdAt,value
2018-09-25T00:02:02.999Z,13.63
2018-09-25T00:04:37.517Z,13.56
2018-09-25T00:07:12.045Z,13.45
2018-09-25T00:09:46.646Z,13.52
2018-09-25T00:12:21.399Z,13.47
2018-09-25T00:14:55.927Z,13.49
2018-09-25T00:17:30.645Z,13.55
2018-09-25T00:20:05.064Z,13.44
2018-09-25T00:22:39.711Z,13.45
2018-09-25T00:25:14.230Z,13.49
2018-09-25T00:27:48.688Z,13.48
2018-09-25T00:30:23.204Z,13.50
2018-09-25T00:32:57.635Z,13.62
2018-09-25T00:35:32.111Z,13.56
2018-09-25T00:38:06.794Z,13.73
2018-09-25T00:40:41.311Z,13.59
2018-09-25T00:43:15.705Z,13.65
2018-09-25T00:45:50.188Z,13.55
2018-09-25T00:48:24.544Z,13.46
2018-09-25T00:50:59.327Z,13.38
2018-09-25T00:53:33.743Z,13.49
2018-09-25T00:56:08.679Z,13.34
2018-09-25T00:58:43.144Z,13.30
2018-09-25T01:01:17.718Z,13.31
2018-09-25T01:03:52.090Z,13.29
2018-09-25T01:06:26.711Z,13.35
2018-09-25T01:09:01.316Z,13.36
2018-09-25T01:11:35.761Z,13.36
2018-09-25T01:14:10.463Z,13.34
2018-09-25T01:16:44.902Z,13.29
2018-09-25T01:19:19.462Z,13.37
2018-09-25T01:21:54.302Z,13.48
2018-09-25T01:24:28.800Z,13.55
2018-09-25T01:27:03.492Z,13.55
2018-09-25T01:29:38.158Z,13.56
2018-09-25T01:32:12.801Z,13.61
2018-09-25T01:34:47.314Z,13.61
2018-09-25T01:37:21.727Z,13.58
2018-09-25T01:39:56.127Z,13.54
2018-09-25T01:42:30.785Z,13.53
2018-09-25T01:45:05.095Z,13.57
2018-09-25T01:52:42.699Z,13.42
2018-09-25T01:55:17.374Z,13.41
2018-09-25T01:57:51.920Z,13.41
2018-09-25T02:00:26.500Z,13.58
2018-09-25T02:03:01.135Z,13.50
2018-09-25T02:05:35.676Z,13.57
2018-09-25T02:08:10.332Z,13.60
2018-09-25T02:10:44.965Z,13.61
2018-09-25T02:13:19.516Z,13.64
2018-09-25T02:15:54.142Z,13.52
2018-09-25T02:18:28.529Z,13.46
2018-09-25T02:21:02.915Z,13.45
2018-09-25T02:23:37.608Z,13.36
2018-09-25T02:26:12.129Z,13.34
2018-09-25T02:28:46.886Z,13.32
2018-09-25T02:31:21.566Z,13.41
2018-09-25T02:33:55.984Z,13.31
2018-09-25T02:36:30.350Z,13.36
2018-09-25T02:39:05.064Z,13.31
2018-09-25T02:41:39.773Z,13.17
2018-09-25T02:44:14.394Z,13.18
2018-09-25T02:46:49.007Z,13.19
2018-09-25T02:49:23.744Z,13.22
2018-09-25T02:51:58.231Z,13.26
2018-09-25T02:54:32.868Z,13.18
2018-09-25T02:57:07.565Z,13.17
2018-09-25T02:59:42.207Z,13.00
2018-09-25T03:02:16.767Z,13.03
2018-09-25T03:04:51.250Z,12.98
2018-09-25T03:07:25.807Z,13.08
2018-09-25T03:10:00.351Z,13.04
2018-09-25T03:12:35.104Z,12.94
2018-09-25T03:15:09.836Z,12.95
2018-09-25T03:17:44.815Z,12.96
2018-09-25T03:20:19.343Z,12.92
2018-09-25T03:22:54.070Z,12.87
2018-09-25T03:25:28.652Z,12.90
2018-09-25T03:28:03.267Z,12.89
2018-09-25T03:30:37.918Z,12.85
2018-09-25T03:33:13.383Z,12.83
2018-09-25T03:35:48.122Z,12.91
2018-09-25T03:38:22.503Z,12.93
2018-09-25T03:40:57.356Z,12.78
2018-09-25T03:43:33.208Z,12.76
2018-09-25T03:46:07.814Z,12.74
2018-09-25T03:48:42.340Z,12.70
2018-09-25T03:51:17.184Z,12.69
2018-09-25T03:53:51.680Z,12.74
2018-09-25T03:56:26.469Z,12.71
2018-09-25T03:59:01.153Z,12.66
2018-09-25T04:01:35.553Z,12.65
2018-09-25T04:04:10.629Z,12.57
2018-09-25T04:06:45.645Z,12.54
2018-09-25T04:09:19.966Z,12.47
2018-09-25T04:11:54.693Z,12.33
2018-09-25T04:14:29.059Z,12.32
2018-09-25T04:17:04.040Z,12.24
2018-09-25T04:19:38.815Z,12.07
2018-09-25T04:22:13.596Z,12.08
2018-09-25T04:24:48.323Z,12.02
2018-09-25T04:27:23.125Z,12.03
2018-09-25T04:29:57.886Z,11.94
2018-09-25T04:32:32.512Z,11.89
2018-09-25T04:35:07.146Z,11.83
2018-09-25T04:37:41.920Z,11.67
2018-09-25T04:40:16.349Z,11.53
2018-09-25T04:42:50.868Z,11.50
2018-09-25T04:45:25.521Z,11.46
2018-09-25T04:48:00.160Z,11.78
2018-09-25T04:50:34.786Z,12.58
2018-09-25T04:53:09.336Z,13.30
2018-09-25T04:55:43.811Z,13.96
2018-09-25T04:58:18.551Z,14.57
2018-09-25T05:00:53.166Z,14.89
2018-09-25T05:03:27.650Z,15.35
2018-09-25T05:06:02.188Z,15.91
2018-09-25T05:08:36.719Z,16.07
2018-09-25T05:11:11.081Z,16.43
2018-09-25T05:13:45.569Z,16.73
2018-09-25T05:16:20.297Z,16.57
2018-09-25T05:18:55.434Z,17.43
2018-09-25T05:21:30.961Z,17.37
2018-09-25T05:24:05.384Z,17.65
2018-09-25T05:26:40.111Z,17.93
2018-09-25T05:29:14.783Z,18.36
2018-09-25T05:31:49.196Z,18.78
2018-09-25T05:34:23.913Z,19.10
2018-09-25T05:36:58.249Z,19.40
2018-09-25T05:39:32.967Z,18.14
2018-09-25T05:42:07.663Z,18.37
2018-09-25T05:44:41.987Z,19.21
2018-09-25T05:47:16.680Z,20.16
2018-09-25T05:49:51.352Z,20.29
2018-09-25T05:52:25.927Z,20.81
2018-09-25T05:55:00.889Z,20.93
2018-09-25T05:57:36.017Z,21.47
2018-09-25T06:00:10.699Z,21.72
2018-09-25T06:02:47.185Z,21.48
2018-09-25T06:05:21.858Z,22.42
2018-09-25T06:07:56.839Z,22.39
2018-09-25T06:10:31.718Z,22.42
2018-09-25T06:13:06.397Z,21.76
2018-09-25T06:15:41.378Z,22.71
2018-09-25T06:18:16.067Z,22.63
2018-09-25T06:20:50.653Z,23.16
2018-09-25T06:23:25.238Z,23.65
2018-09-25T06:25:59.896Z,23.14
2018-09-25T06:28:34.491Z,22.88
2018-09-25T06:31:09.049Z,23.34
2018-09-25T06:33:43.550Z,23.95
2018-09-25T06:36:18.243Z,23.41
2018-09-25T06:38:53.283Z,23.24
2018-09-25T06:41:27.823Z,24.02
2018-09-25T06:44:02.537Z,24.01
2018-09-25T06:46:36.925Z,24.47
2018-09-25T06:49:11.548Z,23.90
2018-09-25T06:51:46.250Z,23.64
2018-09-25T06:54:21.057Z,23.35
2018-09-25T06:56:55.986Z,24.31
2018-09-25T06:59:30.529Z,24.81
2018-09-25T07:02:05.171Z,23.90
2018-09-25T07:04:40.146Z,22.70
2018-09-25T07:07:14.560Z,22.11
2018-09-25T07:09:49.136Z,22.54
2018-09-25T07:12:23.774Z,22.68
2018-09-25T07:14:58.554Z,23.04
2018-09-25T07:17:33.229Z,23.02
2018-09-25T07:20:07.822Z,22.90
2018-09-25T07:22:42.577Z,22.78
2018-09-25T07:25:16.994Z,22.95
2018-09-25T07:27:51.669Z,21.92
2018-09-25T07:30:26.347Z,23.05
2018-09-25T07:33:00.779Z,24.23
2018-09-25T07:35:35.465Z,24.84
2018-09-25T07:38:10.049Z,24.90
2018-09-25T07:40:44.778Z,24.63
2018-09-25T07:43:19.904Z,24.67
2018-09-25T07:45:54.570Z,23.91
2018-09-25T07:48:29.271Z,23.84
2018-09-25T07:51:04.061Z,23.59
2018-09-25T07:53:39.849Z,22.59
2018-09-25T07:56:14.376Z,23.43
2018-09-25T07:58:48.882Z,23.81
2018-09-25T08:01:23.519Z,23.30
2018-09-25T08:03:58.144Z,22.84
2018-09-25T08:06:32.815Z,22.83
2018-09-25T08:09:07.452Z,24.02
2018-09-25T08:11:42.137Z,22.88
2018-09-25T08:14:16.848Z,23.37
2018-09-25T08:16:51.528Z,23.73
2018-09-25T08:19:26.445Z,23.68
2018-09-25T08:22:00.984Z,23.90
2018-09-25T08:24:35.469Z,24.20
2018-09-25T08:27:10.101Z,23.47
2018-09-25T08:29:44.897Z,23.86
2018-09-25T08:32:19.312Z,23.60
2018-09-25T08:34:53.938Z,23.67
2018-09-25T08:37:28.528Z,23.69
2018-09-25T08:40:03.067Z,23.32
2018-09-25T08:42:37.742Z,22.93
2018-09-25T08:45:12.377Z,22.92
2018-09-25T08:47:46.815Z,23.04
2018-09-25T08:50:21.325Z,23.16
2018-09-25T08:52:55.958Z,23.88
2018-09-25T08:55:30.494Z,23.69
2018-09-25T08:58:04.956Z,23.82
2018-09-25T09:00:39.587Z,23.80
2018-09-25T09:03:14.264Z,23.46
2018-09-25T09:05:48.703Z,23.46
2018-09-25T09:08:23.302Z,23.37
2018-09-25T09:10:57.945Z,23.83
2018-09-25T09:13:32.742Z,23.42
2018-09-25T09:16:07.331Z,23.54
2018-09-25T09:18:42.041Z,23.54
2018-09-25T09:21:16.808Z,22.92
2018-09-25T09:23:51.533Z,22.96
2018-09-25T09:26:26.221Z,22.83
2018-09-25T09:29:00.913Z,22.97
2018-09-25T09:31:35.487Z,22.99
2018-09-25T09:34:10.068Z,23.88
2018-09-25T09:36:44.674Z,23.96
2018-09-25T09:39:19.353Z,23.44
2018-09-25T09:41:54.439Z,21.89
2018-09-25T09:44:28.951Z,22.38
2018-09-25T09:47:04.425Z,22.55
2018-09-25T09:49:38.931Z,22.57
2018-09-25T09:52:13.507Z,22.07
2018-09-25T09:54:48.040Z,23.29
2018-09-25T09:57:22.737Z,22.93
2018-09-25T09:59:57.513Z,23.24
2018-09-25T10:02:31.991Z,22.72
2018-09-25T10:05:06.453Z,23.84
2018-09-25T10:07:41.548Z,23.49
2018-09-25T10:10:16.198Z,23.41
2018-09-25T10:12:50.656Z,23.62
2018-09-25T10:15:25.103Z,22.80
2018-09-25T10:17:59.548Z,23.29
2018-09-25T10:20:34.083Z,21.54
2018-09-25T10:23:08.515Z,21.15
2018-09-25T10:25:43.117Z,20.92
2018-09-25T10:28:17.817Z,21.57
2018-09-25T10:30:52.332Z,21.84
2018-09-25T10:33:26.961Z,21.91
2018-09-25T10:36:01.758Z,22.30
2018-09-25T10:38:36.630Z,22.61
2018-09-25T10:41:11.244Z,22.48
2018-09-25T10:43:46.090Z,22.08
2018-09-25T10:46:20.597Z,23.14
2018-09-25T10:48:55.233Z,23.19
2018-09-25T10:51:29.760Z,23.47
2018-09-25T10:54:04.483Z,24.25
2018-09-25T10:56:38.882Z,25.02
2018-09-25T10:59:13.569Z,23.59
2018-09-25T11:01:48.069Z,23.69
2018-09-25T11:04:22.535Z,23.37
2018-09-25T11:06:57.386Z,22.59
2018-09-25T11:09:31.955Z,23.03
2018-09-25T11:12:06.633Z,23.20
2018-09-25T11:14:41.324Z,22.69
2018-09-25T11:17:15.990Z,23.13
2018-09-25T11:19:50.520Z,23.58
2018-09-25T11:22:25.082Z,24.33
2018-09-25T11:24:59.479Z,24.75
2018-09-25T11:27:34.144Z,24.20
2018-09-25T11:30:08.815Z,25.04
2018-09-25T11:32:43.320Z,25.45
2018-09-25T11:35:18.038Z,24.64
2018-09-25T11:37:52.433Z,24.22
2018-09-25T11:40:27.092Z,23.48
2018-09-25T11:43:01.771Z,23.50
2018-09-25T11:45:36.296Z,23.12
2018-09-25T11:48:10.753Z,23.03
2018-09-25T11:50:45.124Z,24.05
2018-09-25T11:53:19.560Z,24.52
2018-09-25T11:55:54.425Z,24.65
2018-09-25T11:58:28.886Z,24.38
2018-09-25T12:01:03.474Z,23.02
2018-09-25T12:03:37.852Z,22.52
2018-09-25T12:06:12.363Z,22.27
2018-09-25T12:08:46.838Z,20.94
2018-09-25T12:11:21.273Z,21.09
2018-09-25T12:13:56.084Z,21.10
2018-09-25T12:16:30.907Z,20.79
2018-09-25T12:19:05.455Z,20.42
2018-09-25T12:21:40.157Z,20.67
2018-09-25T12:24:14.943Z,20.47
2018-09-25T12:26:49.716Z,20.60
2018-09-25T12:29:24.099Z,20.65
2018-09-25T12:31:58.524Z,20.77
2018-09-25T12:34:32.971Z,20.82
2018-09-25T12:37:07.629Z,20.38
2018-09-25T12:39:42.088Z,20.22
2018-09-25T12:42:16.468Z,20.31
2018-09-25T12:44:51.031Z,20.01
2018-09-25T12:47:25.614Z,20.10
2018-09-25T12:50:00.143Z,20.16
2018-09-25T12:52:34.725Z,20.22
2018-09-25T12:55:09.064Z,20.29
2018-09-25T12:57:43.736Z,20.15
2018-09-25T13:00:18.449Z,19.89
2018-09-25T13:02:53.008Z,19.70
2018-09-25T13:05:27.562Z,19.91
2018-09-25T13:08:02.282Z,19.96
2018-09-25T13:10:37.022Z,19.93
2018-09-25T13:13:11.658Z,20.06
2018-09-25T13:15:46.325Z,19.97
2018-09-25T13:18:21.129Z,19.97
2018-09-25T13:20:55.584Z,19.92
2018-09-25T13:23:30.215Z,19.99
2018-09-25T13:26:04.794Z,19.92
2018-09-25T13:28:39.265Z,19.87
2018-09-25T13:31:14.088Z,20.08
2018-09-25T13:33:49.134Z,20.31
2018-09-25T13:36:23.602Z,20.08
2018-09-25T13:38:58.395Z,20.13
2018-09-25T13:41:33.205Z,20.15
2018-09-25T13:44:07.630Z,20.14
2018-09-25T13:46:42.551Z,19.98
2018-09-25T13:49:17.337Z,19.72
2018-09-25T13:51:51.880Z,19.89
2018-09-25T13:54:26.419Z,19.39
2018-09-25T13:57:01.048Z,19.20
2018-09-25T13:59:35.411Z,19.25
2018-09-25T14:02:09.972Z,19.17
2018-09-25T14:04:44.822Z,19.05
2018-09-25T14:07:19.652Z,19.07
2018-09-25T14:09:55.126Z,19.06
2018-09-25T14:12:29.693Z,19.00
2018-09-25T14:15:04.235Z,19.02
2018-09-25T14:17:38.618Z,19.08
2018-09-25T14:20:13.426Z,18.67
2018-09-25T14:22:48.066Z,18.68
2018-09-25T14:25:22.751Z,18.61
2018-09-25T14:27:57.451Z,18.55
2018-09-25T14:30:32.218Z,18.52
2018-09-25T14:33:06.625Z,18.41
2018-09-25T14:35:41.063Z,18.51
2018-09-25T14:38:15.691Z,18.46
2018-09-25T14:40:50.306Z,18.62
2018-09-25T14:43:25.090Z,18.64
2018-09-25T14:45:59.595Z,18.45
2018-09-25T14:48:34.154Z,18.12
2018-09-25T14:51:08.785Z,18.00
2018-09-25T14:53:43.499Z,17.98
2018-09-25T14:56:17.970Z,17.91
2018-09-25T14:58:52.747Z,17.70
2018-09-25T15:01:27.283Z,17.55
2018-09-25T15:04:02.808Z,17.66
2018-09-25T15:06:37.474Z,17.75
2018-09-25T15:09:14.379Z,17.70
2018-09-25T15:11:49.127Z,17.65
2018-09-25T15:14:23.519Z,17.49
2018-09-25T15:16:58.290Z,17.28
2018-09-25T15:19:32.825Z,17.07
2018-09-25T15:22:07.794Z,16.97
2018-09-25T15:24:42.159Z,16.86
2018-09-25T15:27:16.793Z,16.86
2018-09-25T15:29:52.486Z,16.80
2018-09-25T15:32:27.166Z,16.70
2018-09-25T15:35:02.002Z,16.64
2018-09-25T15:37:36.983Z,16.55
2018-09-25T15:40:11.950Z,16.42
2018-09-25T15:42:46.802Z,16.35
2018-09-25T15:45:21.544Z,16.29
2018-09-25T15:47:56.298Z,16.30
2018-09-25T15:50:30.995Z,16.23
2018-09-25T15:53:05.462Z,16.21
2018-09-25T15:55:40.080Z,16.10
2018-09-25T15:58:14.555Z,16.06
2018-09-25T16:00:49.570Z,16.00
2018-09-25T16:03:23.963Z,15.87
2018-09-25T16:05:58.390Z,15.84
2018-09-25T16:08:32.897Z,15.67
2018-09-25T16:11:08.138Z,15.55
2018-09-25T16:13:42.704Z,15.55
2018-09-25T16:16:17.442Z,15.39
2018-09-25T16:18:51.911Z,15.33
2018-09-25T16:21:26.948Z,15.29
2018-09-25T16:24:01.594Z,15.24
2018-09-25T16:26:36.772Z,15.26
2018-09-25T16:29:11.332Z,15.08
2018-09-25T16:31:46.033Z,15.02
2018-09-25T16:34:20.562Z,14.92
2018-09-25T16:36:55.392Z,14.77
2018-09-25T16:39:30.096Z,14.74
2018-09-25T16:42:05.000Z,14.72
2018-09-25T16:44:39.498Z,14.68
2018-09-25T16:47:14.047Z,14.63
2018-09-25T16:49:48.714Z,14.58
2018-09-25T16:52:23.360Z,14.52
2018-09-25T16:54:57.731Z,14.53
2018-09-25T16:57:32.886Z,14.38
2018-09-25T17:00:07.341Z,14.33
2018-09-25T17:02:41.713Z,14.26
2018-09-25T17:05:16.295Z,14.22
2018-09-25T17:07:50.820Z,14.19
2018-09-25T17:10:25.357Z,14.12
2018-09-25T17:12:59.911Z,14.11
2018-09-25T17:15:34.355Z,14.08
2018-09-25T17:18:08.935Z,14.04
2018-09-25T17:20:43.404Z,13.91
2018-09-25T17:23:18.015Z,13.85
2018-09-25T17:25:54.177Z,13.80
2018-09-25T17:28:28.303Z,13.73
2018-09-25T17:31:06.693Z,13.75
2018-09-25T17:33:41.158Z,13.65
2018-09-25T17:36:15.644Z,13.60
2018-09-25T17:38:50.188Z,13.65
2018-09-25T17:41:24.769Z,13.62
2018-09-25T17:44:00.373Z,13.73
2018-09-25T17:46:35.817Z,13.76
2018-09-25T17:49:10.556Z,13.62
2018-09-25T17:51:45.369Z,13.60
2018-09-25T17:54:19.850Z,13.50
2018-09-25T17:56:54.958Z,13.52
2018-09-25T17:59:29.863Z,13.47
2018-09-25T18:02:04.502Z,13.46
2018-09-25T18:04:39.010Z,13.48
2018-09-25T18:07:13.671Z,13.44
2018-09-25T18:09:48.356Z,13.37
2018-09-25T18:12:22.912Z,13.48
2018-09-25T18:14:57.604Z,13.40
2018-09-25T18:17:32.337Z,13.36
2018-09-25T18:20:07.114Z,13.36
2018-09-25T18:22:41.642Z,13.24
2018-09-25T18:25:16.355Z,13.30
2018-09-25T18:27:50.796Z,13.29
2018-09-25T18:30:25.760Z,13.21
2018-09-25T18:33:00.537Z,13.24
2018-09-25T18:35:35.315Z,13.16
2018-09-25T18:38:09.782Z,13.13
2018-09-25T18:40:44.351Z,13.05
2018-09-25T18:43:19.287Z,12.94
2018-09-25T18:45:53.727Z,12.81
2018-09-25T18:48:28.536Z,12.67
2018-09-25T18:51:03.058Z,12.62
2018-09-25T18:53:37.795Z,12.59
2018-09-25T18:56:12.273Z,12.49
2018-09-25T18:58:46.954Z,12.43
2018-09-25T19:01:21.388Z,12.42
2018-09-25T19:03:55.969Z,12.34
2018-09-25T19:06:30.602Z,12.27
2018-09-25T19:09:05.022Z,12.26
2018-09-25T19:11:39.436Z,12.22
2018-09-25T19:14:15.056Z,12.18
2018-09-25T19:16:49.919Z,12.07
2018-09-25T19:19:24.341Z,12.06
2018-09-25T19:21:59.102Z,11.97
2018-09-25T19:24:33.767Z,11.95
2018-09-25T19:27:08.189Z,11.91
2018-09-25T19:29:42.757Z,11.87
2018-09-25T19:32:17.363Z,11.80
2018-09-25T19:34:52.016Z,11.76
2018-09-25T19:37:26.806Z,11.74
2018-09-25T19:40:01.183Z,11.73
2018-09-25T19:42:35.603Z,11.69
2018-09-25T19:45:10.301Z,11.74
2018-09-25T19:47:45.063Z,11.71
2018-09-25T19:50:19.539Z,11.67
2018-09-25T19:52:54.034Z,11.68
2018-09-25T19:55:28.561Z,11.65
2018-09-25T19:58:03.189Z,11.54
2018-09-25T20:00:37.761Z,11.66
2018-09-25T20:03:12.645Z,11.78
2018-09-25T20:05:47.125Z,11.77
2018-09-25T20:08:21.562Z,11.78
2018-09-25T20:10:56.068Z,11.65
2018-09-25T20:13:30.583Z,11.60
2018-09-25T20:16:05.029Z,11.46
2018-09-25T20:18:39.683Z,11.33
2018-09-25T20:21:14.394Z,11.36
2018-09-25T20:23:49.327Z,11.30
2018-09-25T20:26:23.658Z,11.33
2018-09-25T20:28:58.279Z,11.33
2018-09-25T20:31:32.695Z,11.31
2018-09-25T20:34:08.234Z,11.31
2018-09-25T20:36:42.843Z,11.34
2018-09-25T20:39:17.337Z,11.35
2018-09-25T20:41:51.860Z,11.38
2018-09-25T20:44:26.947Z,11.35
2018-09-25T20:47:01.358Z,11.29
2018-09-25T20:49:36.184Z,11.34
2018-09-25T20:52:10.772Z,11.30
2018-09-25T20:54:45.332Z,11.20
2018-09-25T20:57:20.122Z,11.14
2018-09-25T20:59:54.796Z,11.12
2018-09-25T21:02:29.508Z,11.16
2018-09-25T21:05:04.398Z,11.11
2018-09-25T21:07:40.293Z,11.07
2018-09-25T21:10:15.146Z,11.05
2018-09-25T21:12:49.865Z,11.03
2018-09-25T21:15:24.636Z,11.08
2018-09-25T21:17:59.404Z,11.07
2018-09-25T21:20:34.028Z,11.04
2018-09-25T21:23:08.701Z,11.11
2018-09-25T21:25:43.583Z,11.11
2018-09-25T21:28:18.292Z,11.16
2018-09-25T21:30:53.007Z,11.12
2018-09-25T21:33:28.381Z,11.12
2018-09-25T21:36:03.144Z,11.16
2018-09-25T21:38:38.116Z,11.21
2018-09-25T21:41:13.172Z,11.18
2018-09-25T21:43:48.019Z,11.26
2018-09-25T21:46:23.412Z,11.29
2018-09-25T21:48:58.243Z,11.27
2018-09-25T21:51:33.113Z,11.28
2018-09-25T21:54:07.727Z,11.24
2018-09-25T21:56:42.582Z,11.22
2018-09-25T21:59:17.439Z,11.21
2018-09-25T22:01:52.003Z,11.19
2018-09-25T22:04:26.689Z,11.17
2018-09-25T22:07:01.212Z,11.24
2018-09-25T22:09:36.162Z,11.21
2018-09-25T22:12:10.873Z,11.12
2018-09-25T22:14:45.585Z,11.04
2018-09-25T22:17:20.405Z,10.97
2018-09-25T22:19:55.012Z,10.95
2018-09-25T22:22:29.667Z,10.91
2018-09-25T22:25:04.573Z,10.84
2018-09-25T22:27:39.338Z,10.83
2018-09-25T22:30:14.149Z,10.76
2018-09-25T22:32:49.132Z,10.74
2018-09-25T22:35:23.884Z,10.81
2018-09-25T22:37:58.634Z,10.85
2018-09-25T22:40:33.131Z,10.85
2018-09-25T22:43:07.815Z,10.99
2018-09-25T22:45:42.293Z,10.89
2018-09-25T22:48:16.980Z,10.87
2018-09-25T22:50:51.725Z,10.80
2018-09-25T22:53:26.443Z,10.67
2018-09-25T22:56:01.328Z,10.67
2018-09-25T22:58:36.405Z,10.58
2018-09-25T23:01:11.098Z,10.52
2018-09-25T23:03:45.727Z,10.43
2018-09-25T23:06:20.791Z,10.38
2018-09-25T23:08:55.608Z,10.37
2018-09-25T23:11:30.283Z,10.30
2018-09-25T23:14:05.013Z,10.29
2018-09-25T23:16:39.746Z,10.24
2018-09-25T23:19:14.481Z,10.35
2018-09-25T23:21:48.900Z,10.32
2018-09-25T23:24:23.258Z,10.24
2018-09-25T23:26:58.002Z,10.16
2018-09-25T23:29:32.621Z,10.14
2018-09-25T23:32:07.514Z,10.11
2018-09-25T23:34:42.152Z,10.07
2018-09-25T23:37:16.726Z,10.03
2018-09-25T23:39:55.031Z,9.98
2018-09-25T23:42:30.546Z,10.03
2018-09-25T23:45:07.127Z,10.05
2018-09-25T23:47:45.224Z,10.02
2018-09-25T23:50:19.793Z,10.03
2018-09-25T23:52:54.893Z,9.98
2018-09-25T23:55:29.926Z,9.97
2018-09-25T23:59:02.498Z,9.98
